Time;durP1;ratioP1;P1;durP2;ratioP2;P2;SDS_P1;SDS_P2;PMS_P1;PMS_P2;Temp;Humidity;BMP_temperature;BMP_pressure;BME280_temperature;BME280_humidity;BME280_pressure;Samples;Min_cycle;Max_cycle;Signal;HPM_P1;HPM_P2
2020/12/31 00:00:29;;;;;;;10.00;6.32;;;5.20;99.90;;;;;;4149861;28;20168;-70
2020/12/31 00:02:30;;;;;;;10.10;6.20;;;5.20;99.90;;;;;;4153199;28;20436;-69
2020/12/31 00:04:31;;;;;;;9.93;6.63;;;5.20;99.90;;;;;;4153756;28;20033;-69
2020/12/31 00:06:32;;;;;;;10.95;7.13;;;5.20;99.90;;;;;;4154057;28;20057;-69
2020/12/31 00:08:33;;;;;;;11.80;6.40;;;5.20;99.90;;;;;;4134868;28;20034;-69
2020/12/31 00:10:34;;;;;;;10.63;6.78;;;5.10;99.90;;;;;;4151183;28;20132;-69
2020/12/31 00:12:34;;;;;;;10.40;6.53;;;5.10;99.90;;;;;;4152773;28;20046;-70
2020/12/31 00:14:35;;;;;;;10.50;6.10;;;5.10;99.90;;;;;;4151882;28;20041;-69
2020/12/31 00:16:36;;;;;;;12.10;6.35;;;5.10;99.90;;;;;;4150649;28;20668;-69
2020/12/31 00:18:37;;;;;;;9.40;5.72;;;5.10;99.90;;;;;;4148439;28;20049;-69
2020/12/31 00:20:38;;;;;;;9.23;6.00;;;5.10;99.90;;;;;;4151812;28;20029;-70
2020/12/31 00:22:39;;;;;;;11.48;6.28;;;5.10;99.90;;;;;;4154612;28;20029;-69
2020/12/31 00:24:39;;;;;;;9.43;5.43;;;5.10;99.90;;;;;;4150467;28;20065;-69
2020/12/31 00:26:40;;;;;;;10.30;6.00;;;5.10;99.90;;;;;;4155476;28;20191;-69
2020/12/31 00:28:41;;;;;;;9.27;5.40;;;5.10;99.90;;;;;;4152961;28;20025;-70
2020/12/31 00:30:43;;;;;;;10.25;6.30;;;5.10;99.90;;;;;;4153258;28;20412;-70
2020/12/31 00:32:46;;;;;;;11.70;5.70;;;5.20;99.90;;;;;;4134915;28;20038;-69
2020/12/31 00:34:47;;;;;;;7.30;5.22;;;5.10;99.90;;;;;;4151665;28;20045;-69
2020/12/31 00:36:48;;;;;;;9.73;5.53;;;5.10;99.90;;;;;;4150146;28;20633;-70
2020/12/31 00:38:51;;;;;;;;;;;5.10;99.90;;;;;;4153684;28;20052;-69
2020/12/31 00:40:53;;;;;;;9.32;5.57;;;5.10;99.90;;;;;;4152871;28;19913;-69
2020/12/31 00:42:53;;;;;;;7.13;4.82;;;5.10;99.90;;;;;;4151963;28;20041;-69
2020/12/31 00:44:54;;;;;;;9.80;5.60;;;5.10;99.90;;;;;;4150856;28;20044;-69
2020/12/31 00:46:54;;;;;;;9.35;5.28;;;5.10;99.90;;;;;;4150841;28;20044;-69
2020/12/31 00:49:00;;;;;;;10.55;5.20;;;5.10;99.90;;;;;;4146076;28;20922;-69
2020/12/31 00:51:00;;;;;;;10.45;5.35;;;5.10;99.90;;;;;;4145786;28;20160;-69
2020/12/31 00:53:01;;;;;;;8.43;5.63;;;5.10;99.90;;;;;;4149643;28;20078;-69
2020/12/31 00:55:03;;;;;;;8.10;5.38;;;5.10;99.90;;;;;;4148855;28;20057;-69
2020/12/31 00:57:03;;;;;;;7.95;5.50;;;5.10;99.90;;;;;;4150669;28;20044;-70
2020/12/31 00:59:05;;;;;;;8.07;5.45;;;5.10;99.90;;;;;;4149496;28;20038;-69
2020/12/31 01:01:06;;;;;;;7.97;5.57;;;5.00;99.90;;;;;;4151719;28;20519;-70
2020/12/31 01:03:07;;;;;;;9.13;6.00;;;5.10;99.90;;;;;;4150239;28;20038;-69
2020/12/31 01:05:11;;;;;;;9.02;5.47;;;5.10;99.90;;;;;;4150342;28;20096;-69
2020/12/31 01:07:18;;;;;;;9.15;6.15;;;5.10;99.90;;;;;;4152457;28;20030;-69
2020/12/31 01:09:19;;;;;;;9.25;5.90;;;5.10;99.90;;;;;;4148650;28;20041;-69
2020/12/31 01:11:19;;;;;;;9.23;5.97;;;5.10;99.90;;;;;;4152668;28;20030;-69
2020/12/31 01:13:20;;;;;;;8.15;5.63;;;5.10;99.90;;;;;;4150721;28;20782;-69
2020/12/31 01:15:21;;;;;;;6.93;5.15;;;5.10;99.90;;;;;;4152407;28;20053;-69
2020/12/31 01:17:24;;;;;;;8.93;5.60;;;5.10;99.90;;;;;;4153886;28;20060;-69
2020/12/31 01:19:24;;;;;;;8.02;5.55;;;5.10;99.90;;;;;;4157636;28;20057;-69
2020/12/31 01:21:25;;;;;;;9.20;5.40;;;5.10;99.90;;;;;;4158074;28;20036;-69
2020/12/31 01:23:26;;;;;;;7.45;5.22;;;5.20;99.90;;;;;;4158111;28;20520;-69
2020/12/31 01:25:26;;;;;;;11.40;6.30;;;5.10;99.90;;;;;;4161599;28;20034;-70
2020/12/31 01:27:27;;;;;;;8.65;5.32;;;5.10;99.90;;;;;;4160440;28;20034;-70
2020/12/31 01:29:28;;;;;;;8.85;6.18;;;5.10;99.90;;;;;;4162270;28;20149;-69
2020/12/31 01:31:28;;;;;;;8.70;6.00;;;5.10;99.90;;;;;;4162323;28;20485;-69
2020/12/31 01:33:29;;;;;;;7.22;5.25;;;5.10;99.90;;;;;;4161383;28;20065;-69
2020/12/31 01:35:29;;;;;;;7.97;5.70;;;5.10;99.90;;;;;;4159804;28;20045;-69
2020/12/31 01:37:30;;;;;;;7.78;5.38;;;5.10;99.90;;;;;;4161727;28;20046;-69
2020/12/31 01:39:31;;;;;;;8.65;5.43;;;5.10;99.90;;;;;;4155832;28;20088;-69
2020/12/31 01:41:31;;;;;;;12.05;6.25;;;5.10;99.90;;;;;;4150003;28;20038;-69
2020/12/31 01:43:32;;;;;;;9.20;6.03;;;5.20;99.90;;;;;;4153517;28;20573;-69
2020/12/31 01:45:32;;;;;;;9.90;6.82;;;5.20;99.90;;;;;;4155945;28;20035;-69
2020/12/31 01:47:34;;;;;;;8.75;5.82;;;5.20;99.90;;;;;;4152375;28;20117;-69
2020/12/31 01:49:36;;;;;;;9.50;5.90;;;5.20;99.90;;;;;;4152863;28;20073;-69
2020/12/31 01:51:38;;;;;;;8.68;6.15;;;5.20;99.90;;;;;;4155717;28;20033;-69
2020/12/31 01:53:39;;;;;;;8.52;5.68;;;5.20;99.90;;;;;;4151372;28;20604;-69
2020/12/31 01:55:41;;;;;;;10.07;6.20;;;5.20;99.90;;;;;;4151758;28;20061;-69
2020/12/31 01:57:42;;;;;;;8.75;5.65;;;5.20;99.90;;;;;;4137296;28;20162;-69
2020/12/31 01:59:44;;;;;;;8.68;5.68;;;5.20;99.90;;;;;;4152741;28;20121;-70
2020/12/31 02:01:46;;;;;;;8.88;5.72;;;5.30;99.90;;;;;;4149798;28;20044;-69
2020/12/31 02:03:47;;;;;;;9.77;5.93;;;5.30;99.90;;;;;;4151570;28;20584;-69
2020/12/31 02:05:48;;;;;;;9.27;5.93;;;5.30;99.90;;;;;;4139201;28;20038;-69
2020/12/31 02:07:49;;;;;;;6.90;5.57;;;5.40;99.90;;;;;;4152651;28;20034;-69
2020/12/31 02:09:50;;;;;;;8.57;6.13;;;5.40;99.90;;;;;;4152017;28;20132;-69
2020/12/31 02:11:50;;;;;;;9.50;5.78;;;5.40;99.90;;;;;;4152929;28;20070;-69
2020/12/31 02:13:54;;;;;;;10.52;5.95;;;5.40;99.90;;;;;;4153343;28;20022;-70
2020/12/31 02:15:55;;;;;;;9.85;5.72;;;5.40;99.90;;;;;;4148806;28;20034;-70
2020/12/31 02:17:56;;;;;;;10.70;6.15;;;5.40;99.90;;;;;;4153743;28;20030;-70
2020/12/31 02:19:56;;;;;;;8.95;5.60;;;5.40;99.90;;;;;;4150503;28;20030;-70
2020/12/31 02:21:57;;;;;;;8.60;6.13;;;5.40;99.90;;;;;;4150882;28;20018;-70
2020/12/31 02:23:59;;;;;;;10.70;5.68;;;5.40;99.90;;;;;;4153784;28;22684;-70
2020/12/31 02:26:00;;;;;;;;;;;5.40;99.90;;;;;;4151908;28;20041;-70
2020/12/31 02:28:00;;;;;;;8.82;6.05;;;5.40;99.90;;;;;;4155072;28;19909;-70
2020/12/31 02:30:02;;;;;;;10.95;5.80;;;5.40;99.90;;;;;;4153722;28;20060;-70
2020/12/31 02:32:03;;;;;;;9.63;5.97;;;5.40;99.90;;;;;;4155217;28;20033;-71
2020/12/31 02:34:04;;;;;;;8.45;5.57;;;5.40;99.90;;;;;;4134179;28;20450;-70
2020/12/31 02:36:05;;;;;;;11.15;6.50;;;5.40;99.90;;;;;;4154359;28;20065;-70
2020/12/31 02:38:05;;;;;;;9.52;6.70;;;5.50;99.90;;;;;;4152959;28;20664;-70
2020/12/31 02:40:06;;;;;;;8.75;6.38;;;5.50;99.90;;;;;;4154734;28;20137;-70
2020/12/31 02:42:07;;;;;;;9.05;6.45;;;5.50;99.90;;;;;;4156383;28;20030;-70
2020/12/31 02:44:08;;;;;;;9.38;6.40;;;5.50;99.90;;;;;;4154675;28;20433;-70
2020/12/31 02:46:14;;;;;;;9.50;6.45;;;5.50;99.90;;;;;;4150946;28;20157;-70
2020/12/31 02:48:14;;;;;;;10.45;6.88;;;5.50;99.90;;;;;;4152226;28;20033;-70
2020/12/31 02:50:15;;;;;;;11.30;7.88;;;5.50;99.90;;;;;;4154993;28;20033;-70
2020/12/31 02:52:16;;;;;;;10.38;7.18;;;5.50;99.90;;;;;;4153922;28;20037;-71
2020/12/31 02:54:16;;;;;;;11.75;7.35;;;5.50;99.90;;;;;;4150419;28;20084;-69
2020/12/31 02:56:19;;;;;;;9.77;6.82;;;5.50;99.90;;;;;;4154703;28;20128;-70
2020/12/31 02:58:20;;;;;;;11.27;7.55;;;5.50;99.90;;;;;;4152952;28;20547;-69
2020/12/31 03:00:21;;;;;;;11.65;7.07;;;5.50;99.90;;;;;;4133836;28;20034;-70
2020/12/31 03:02:21;;;;;;;11.63;7.70;;;5.40;99.90;;;;;;4153332;28;20116;-70
2020/12/31 03:04:22;;;;;;;11.60;7.97;;;5.40;99.90;;;;;;4151948;28;20062;-70
2020/12/31 03:06:23;;;;;;;11.55;7.70;;;5.40;99.90;;;;;;4153271;28;20065;-70
2020/12/31 03:08:24;;;;;;;11.55;7.03;;;5.40;99.90;;;;;;4153780;28;20500;-69
2020/12/31 03:10:24;;;;;;;9.70;7.25;;;5.40;99.90;;;;;;4153777;28;20051;-70
2020/12/31 03:12:25;;;;;;;12.07;7.13;;;5.30;99.90;;;;;;4153249;28;20026;-70
2020/12/31 03:14:25;;;;;;;12.68;7.95;;;5.30;99.90;;;;;;4152930;28;20679;-70
2020/12/31 03:16:26;;;;;;;9.98;7.18;;;5.30;99.90;;;;;;4151774;28;20029;-70
2020/12/31 03:18:27;;;;;;;11.70;6.80;;;5.30;99.90;;;;;;4153809;28;20446;-70
2020/12/31 03:20:27;;;;;;;8.48;6.25;;;5.30;99.90;;;;;;4156664;28;20037;-70
2020/12/31 03:22:28;;;;;;;10.68;6.78;;;5.20;99.90;;;;;;4153922;28;20359;-70
2020/12/31 03:24:29;;;;;;;8.77;6.10;;;5.10;99.90;;;;;;4151971;28;20523;-70
2020/12/31 03:26:30;;;;;;;8.35;5.93;;;5.20;99.90;;;;;;4142250;28;20068;-70
2020/12/31 03:28:31;;;;;;;10.98;6.32;;;5.10;99.90;;;;;;4150390;28;20037;-70
2020/12/31 03:30:32;;;;;;;8.82;6.30;;;5.10;99.90;;;;;;4153926;28;20040;-70
2020/12/31 03:32:33;;;;;;;8.30;4.83;;;5.10;99.90;;;;;;4146246;28;20046;-70
2020/12/31 03:34:34;;;;;;;7.43;4.68;;;5.10;99.90;;;;;;4160841;28;20038;-70
2020/12/31 03:36:34;;;;;;;8.13;4.45;;;5.00;99.90;;;;;;4159575;28;20042;-70
2020/12/31 03:38:35;;;;;;;4.93;3.42;;;5.00;99.90;;;;;;4161036;28;20037;-70
2020/12/31 03:40:36;;;;;;;4.13;3.00;;;5.00;99.90;;;;;;4160105;28;20113;-70
2020/12/31 03:42:37;;;;;;;3.88;3.13;;;4.90;99.90;;;;;;4160438;28;20537;-70
2020/12/31 03:44:37;;;;;;;4.20;2.90;;;5.00;99.90;;;;;;4158409;28;20071;-70
2020/12/31 03:46:38;;;;;;;4.07;3.08;;;4.90;99.90;;;;;;4158319;28;20036;-70
2020/12/31 03:48:39;;;;;;;3.40;2.63;;;4.90;99.90;;;;;;4157581;28;20096;-70
2020/12/31 03:50:39;;;;;;;4.13;2.45;;;4.90;99.90;;;;;;4155033;28;20120;-70
2020/12/31 03:52:40;;;;;;;2.60;2.10;;;4.90;99.90;;;;;;4158058;28;20033;-70
2020/12/31 03:54:42;;;;;;;2.70;2.25;;;4.90;99.90;;;;;;4160886;28;20116;-70
2020/12/31 03:56:43;;;;;;;3.28;2.03;;;4.80;99.90;;;;;;4159985;28;20061;-70
2020/12/31 03:58:43;;;;;;;4.07;2.28;;;4.80;99.90;;;;;;4159945;28;20030;-70
2020/12/31 04:00:44;;;;;;;3.05;1.80;;;4.80;99.90;;;;;;4142174;28;20049;-70
2020/12/31 04:02:44;;;;;;;3.63;1.80;;;4.80;99.90;;;;;;4157628;28;20120;-71
2020/12/31 04:04:45;;;;;;;1.63;1.40;;;4.80;99.90;;;;;;4160317;28;20033;-70
2020/12/31 04:06:46;;;;;;;2.55;1.95;;;4.80;99.90;;;;;;4160117;28;20129;-70
2020/12/31 04:08:47;;;;;;;2.67;1.60;;;4.80;99.90;;;;;;4160380;28;20034;-70
2020/12/31 04:10:47;;;;;;;1.42;1.33;;;4.80;99.90;;;;;;4159729;28;20504;-70
2020/12/31 04:12:48;;;;;;;3.75;1.65;;;4.90;99.90;;;;;;4159913;28;20088;-70
2020/12/31 04:14:48;;;;;;;2.45;1.73;;;4.90;99.90;;;;;;4160261;28;20044;-70
2020/12/31 04:16:50;;;;;;;2.35;1.77;;;4.90;99.90;;;;;;4158123;28;20092;-70
2020/12/31 04:18:50;;;;;;;2.65;1.75;;;4.90;99.90;;;;;;4158320;28;20037;-70
2020/12/31 04:20:51;;;;;;;1.73;1.40;;;4.90;99.90;;;;;;4159681;28;20038;-70
2020/12/31 04:22:51;;;;;;;2.45;1.58;;;4.90;99.90;;;;;;4159601;28;20041;-70
2020/12/31 04:24:52;;;;;;;3.47;1.73;;;4.80;99.90;;;;;;4158398;28;20461;-70
2020/12/31 04:26:53;;;;;;;1.92;1.40;;;4.90;99.90;;;;;;4159743;28;20571;-70
2020/12/31 04:28:53;;;;;;;1.08;0.93;;;4.80;99.90;;;;;;4160032;28;20133;-70
2020/12/31 04:30:54;;;;;;;1.48;1.10;;;4.90;99.90;;;;;;4158083;28;20034;-70
2020/12/31 04:32:54;;;;;;;2.60;1.48;;;4.90;99.90;;;;;;4156301;28;20434;-70
2020/12/31 04:34:55;;;;;;;2.03;1.35;;;4.80;99.90;;;;;;4159358;28;20060;-70
2020/12/31 04:36:56;;;;;;;1.55;1.08;;;4.80;99.90;;;;;;4159625;28;20038;-70
2020/12/31 04:38:56;;;;;;;1.67;1.10;;;4.80;99.90;;;;;;4159842;28;20194;-70
2020/12/31 04:41:01;;;;;;;2.10;1.33;;;4.90;99.90;;;;;;4157658;28;20049;-68
2020/12/31 04:43:05;;;;;;;2.25;1.30;;;4.90;99.90;;;;;;4160205;28;20030;-68
2020/12/31 04:45:06;;;;;;;1.60;1.20;;;4.90;99.90;;;;;;4154153;28;20034;-68
2020/12/31 04:47:17;;;;;;;1.38;1.15;;;4.90;99.90;;;;;;4157427;28;20037;-68
2020/12/31 04:49:28;;;;;;;2.47;1.23;;;4.90;99.90;;;;;;4157760;28;20037;-70
2020/12/31 04:51:33;;;;;;;2.28;1.20;;;4.90;99.90;;;;;;4152762;28;20046;-68
2020/12/31 04:53:34;;;;;;;1.55;0.98;;;4.90;99.90;;;;;;4159934;28;20056;-68
2020/12/31 04:55:41;;;;;;;1.88;1.27;;;4.90;99.90;;;;;;4159734;28;20037;-68
2020/12/31 04:57:42;;;;;;;1.88;0.90;;;4.90;99.90;;;;;;4159207;28;20071;-68
2020/12/31 04:59:42;;;;;;;1.70;1.20;;;4.90;99.90;;;;;;4158676;28;20061;-68
2020/12/31 05:01:46;;;;;;;1.58;0.90;;;4.90;99.90;;;;;;4150338;28;20048;-68
2020/12/31 05:03:46;;;;;;;1.30;1.00;;;4.90;99.90;;;;;;4158110;28;20390;-68
2020/12/31 05:05:53;;;;;;;1.98;1.13;;;4.90;99.90;;;;;;4158206;28;20049;-68
2020/12/31 05:07:54;;;;;;;1.48;0.82;;;4.90;99.90;;;;;;4157146;28;20042;-68
2020/12/31 05:10:12;;;;;;;2.13;0.98;;;4.90;99.90;;;;;;4154008;28;20136;-68
2020/12/31 05:12:13;;;;;;;1.83;1.13;;;4.80;99.90;;;;;;4148004;28;20144;-68
2020/12/31 05:14:29;;;;;;;1.98;1.08;;;4.90;99.90;;;;;;4159107;28;20053;-68
2020/12/31 05:16:30;;;;;;;1.80;1.00;;;4.90;99.90;;;;;;4150257;28;20413;-70
2020/12/31 05:18:30;;;;;;;2.97;1.00;;;4.90;99.90;;;;;;4158281;28;20041;-70
2020/12/31 05:20:31;;;;;;;1.02;0.90;;;4.90;99.90;;;;;;4158379;28;20045;-70
2020/12/31 05:22:31;;;;;;;1.70;1.10;;;4.90;99.90;;;;;;4157479;28;20026;-70
2020/12/31 05:24:32;;;;;;;1.30;1.05;;;4.90;99.90;;;;;;4158927;28;20563;-70
2020/12/31 05:26:32;;;;;;;1.10;1.00;;;4.90;99.90;;;;;;4159458;28;20029;-70
2020/12/31 05:28:37;;;;;;;1.20;1.00;;;4.90;99.90;;;;;;4159333;28;20083;-70
2020/12/31 05:30:40;;;;;;;1.10;0.90;;;4.90;99.90;;;;;;4150393;28;20045;-70
2020/12/31 05:32:41;;;;;;;1.35;1.23;;;4.90;99.90;;;;;;4150836;28;20025;-70
2020/12/31 05:34:42;;;;;;;1.75;1.38;;;5.00;99.90;;;;;;4159094;28;20549;-70
2020/12/31 05:36:43;;;;;;;2.15;1.35;;;4.90;99.90;;;;;;4158814;28;20041;-70
2020/12/31 05:38:47;;;;;;;2.40;1.52;;;4.90;99.90;;;;;;4156805;28;20128;-70
2020/12/31 05:40:57;;;;;;;1.92;1.38;;;4.90;99.90;;;;;;4159284;28;20046;-70
2020/12/31 05:42:58;;;;;;;1.55;1.10;;;4.90;99.90;;;;;;4156935;28;20033;-70
2020/12/31 05:45:02;;;;;;;1.17;1.07;;;4.90;99.90;;;;;;4159466;28;20124;-70
2020/12/31 05:47:03;;;;;;;1.83;1.38;;;4.90;99.90;;;;;;4157113;28;20044;-70
2020/12/31 05:49:06;;;;;;;2.67;1.35;;;4.90;99.90;;;;;;4154629;28;20045;-70
2020/12/31 05:51:23;;;;;;;2.17;1.40;;;4.90;99.90;;;;;;4154711;28;20073;-70
2020/12/31 05:53:24;;;;;;;1.60;1.50;;;4.90;99.90;;;;;;4153824;28;20029;-70
2020/12/31 05:55:26;;;;;;;2.30;1.30;;;4.90;99.90;;;;;;4157468;28;20041;-70
2020/12/31 05:57:42;;;;;;;1.33;1.10;;;4.90;99.90;;;;;;4159056;28;20049;-70
2020/12/31 05:59:49;;;;;;;1.70;1.30;;;4.90;99.90;;;;;;4156771;28;20490;-70
2020/12/31 06:02:03;;;;;;;2.72;1.38;;;4.90;99.90;;;;;;4159154;28;20032;-70
2020/12/31 06:04:18;;;;;;;1.85;1.40;;;4.90;99.90;;;;;;4156644;28;20038;-70
2020/12/31 06:06:23;;;;;;;2.65;1.65;;;4.90;99.90;;;;;;4158789;28;20025;-70
2020/12/31 06:08:29;;;;;;;3.28;1.90;;;4.90;99.90;;;;;;4157343;28;20053;-70
2020/12/31 06:10:31;;;;;;;2.25;1.95;;;4.90;99.90;;;;;;4153571;28;20033;-70
2020/12/31 06:12:49;;;;;;;2.20;1.95;;;4.90;99.90;;;;;;4159949;28;20046;-70
2020/12/31 06:14:59;;;;;;;2.85;2.22;;;4.90;99.90;;;;;;4162119;28;20037;-70
2020/12/31 06:17:03;;;;;;;3.40;2.17;;;4.90;99.90;;;;;;4162018;28;20576;-70
2020/12/31 06:19:26;;;;;;;3.22;2.42;;;4.90;99.90;;;;;;4157156;28;20112;-70
2020/12/31 06:22:00;;;;;;;4.15;2.40;;;4.90;99.90;;;;;;4149486;28;20060;-70
2020/12/31 06:24:09;;;;;;;3.25;2.20;;;4.80;99.90;;;;;;4135658;28;20029;-70
2020/12/31 06:26:13;;;;;;;2.25;1.77;;;4.80;99.90;;;;;;4148311;28;20427;-70
2020/12/31 06:28:18;;;;;;;2.78;1.95;;;4.70;99.90;;;;;;4153233;28;20482;-70
2020/12/31 06:30:23;;;;;;;2.03;1.70;;;4.70;99.90;;;;;;4154138;28;20184;-70
2020/12/31 06:32:30;;;;;;;2.58;1.85;;;4.70;99.90;;;;;;4149817;28;20026;-70
2020/12/31 06:34:31;;;;;;;1.70;1.60;;;4.60;99.90;;;;;;4154598;28;20048;-70
2020/12/31 06:36:35;;;;;;;3.90;1.65;;;4.60;99.90;;;;;;4154245;28;20452;-70
2020/12/31 06:38:43;;;;;;;1.42;1.27;;;4.50;99.90;;;;;;4162621;28;20033;-70
2020/12/31 06:40:59;;;;;;;;;;;4.40;99.90;;;;;;4133848;28;20112;-70
2020/12/31 06:43:07;;;;;;;1.58;1.30;;;4.40;99.90;;;;;;4159784;28;20261;-70
2020/12/31 06:45:34;;;;;;;1.60;1.33;;;4.40;99.90;;;;;;4138854;28;20037;-70
2020/12/31 06:47:37;;;;;;;1.38;1.17;;;4.30;99.90;;;;;;4148408;28;20041;-70
2020/12/31 06:49:51;;;;;;;1.75;1.30;;;4.30;99.90;;;;;;4152777;28;20045;-70
2020/12/31 06:51:52;;;;;;;2.53;1.30;;;4.30;99.90;;;;;;4161157;28;20037;-70
2020/12/31 06:53:53;;;;;;;1.30;1.20;;;4.30;99.90;;;;;;4152393;28;20053;-70
2020/12/31 06:55:53;;;;;;;1.85;1.42;;;4.30;99.90;;;;;;4171810;28;20030;-70
2020/12/31 06:57:54;;;;;;;2.05;1.17;;;4.30;99.90;;;;;;4156520;28;20092;-70
2020/12/31 06:59:54;;;;;;;1.73;1.35;;;4.30;99.90;;;;;;4149539;28;20034;-70
2020/12/31 07:01:57;;;;;;;1.48;1.38;;;4.30;99.90;;;;;;4149866;28;20478;-70
2020/12/31 07:03:58;;;;;;;2.00;1.17;;;4.30;99.90;;;;;;4158858;28;20040;-70
2020/12/31 07:06:20;;;;;;;1.83;1.52;;;4.30;99.90;;;;;;4162722;28;20048;-70
2020/12/31 07:08:37;;;;;;;1.45;1.35;;;4.30;99.90;;;;;;4160882;28;20120;-70
2020/12/31 07:10:45;;;;;;;1.85;1.58;;;4.40;99.90;;;;;;4160869;28;20040;-70
2020/12/31 07:12:45;;;;;;;1.38;1.27;;;4.40;99.90;;;;;;4150224;28;20061;-70
2020/12/31 07:14:53;;;;;;;2.95;1.45;;;4.40;99.90;;;;;;4157214;28;20495;-70
2020/12/31 07:17:00;;;;;;;1.65;1.50;;;4.40;99.90;;;;;;4152537;28;20037;-70
2020/12/31 07:19:02;;;;;;;4.03;1.65;;;4.40;99.90;;;;;;4158409;28;20045;-70
2020/12/31 07:21:02;;;;;;;2.10;1.50;;;4.50;99.90;;;;;;4156919;28;20037;-70
2020/12/31 07:23:06;;;;;;;2.13;1.50;;;4.50;99.90;;;;;;4163678;28;20045;-70
2020/12/31 07:25:15;;;;;;;2.28;1.88;;;4.50;99.90;;;;;;4153796;28;20120;-70
2020/12/31 07:27:36;;;;;;;1.77;1.67;;;4.60;99.90;;;;;;4155829;28;20405;-70
2020/12/31 07:29:37;;;;;;;1.67;1.42;;;4.60;99.90;;;;;;4143519;28;20045;-70
2020/12/31 07:31:40;;;;;;;1.65;1.55;;;4.60;99.90;;;;;;4148476;28;21345;-70
2020/12/31 07:33:41;;;;;;;2.70;1.85;;;4.70;99.90;;;;;;4161046;28;20060;-70
2020/12/31 07:35:43;;;;;;;2.92;1.90;;;4.70;99.90;;;;;;4154959;28;20034;-70
2020/12/31 07:37:44;;;;;;;;;;;4.70;99.90;;;;;;4156357;28;20076;-70
2020/12/31 07:39:44;;;;;;;2.17;1.80;;;4.80;99.90;;;;;;4157789;28;19924;-70
2020/12/31 07:41:45;;;;;;;1.83;1.58;;;4.80;99.90;;;;;;4150393;28;20047;-70
2020/12/31 07:43:46;;;;;;;2.65;1.88;;;4.80;99.90;;;;;;4141975;28;20042;-70
2020/12/31 07:45:49;;;;;;;3.25;2.00;;;4.80;99.90;;;;;;4158513;28;20041;-70
2020/12/31 07:47:51;;;;;;;3.28;2.13;;;4.80;99.90;;;;;;4147584;28;20133;-70
2020/12/31 07:49:52;;;;;;;2.47;2.17;;;4.80;99.90;;;;;;4151103;28;20541;-70
2020/12/31 07:52:00;;;;;;;2.90;2.17;;;4.80;99.90;;;;;;4156815;28;20061;-70
2020/12/31 07:54:02;;;;;;;2.80;2.00;;;4.80;99.90;;;;;;4155528;28;20042;-70
2020/12/31 07:56:06;;;;;;;2.72;2.22;;;4.90;99.90;;;;;;4148566;28;20093;-70
2020/12/31 07:58:08;;;;;;;2.55;2.10;;;4.90;99.90;;;;;;4159805;28;20112;-71
2020/12/31 08:00:17;;;;;;;4.60;2.40;;;4.90;99.90;;;;;;4160156;28;20393;-72
2020/12/31 08:02:18;;;;;;;2.10;1.80;;;4.90;99.90;;;;;;4159424;28;20036;-72
2020/12/31 08:04:25;;;;;;;3.50;2.50;;;4.90;99.90;;;;;;4157567;28;20709;-72
2020/12/31 08:06:29;;;;;;;3.55;2.72;;;4.90;99.90;;;;;;4151059;28;20099;-72
2020/12/31 08:08:30;;;;;;;3.53;2.90;;;4.90;99.90;;;;;;4159671;28;20025;-72
2020/12/31 08:10:35;;;;;;;4.57;3.08;;;4.90;99.90;;;;;;4166355;28;20040;-72
2020/12/31 08:12:38;;;;;;;5.57;2.80;;;4.80;99.90;;;;;;4153094;28;20405;-71
2020/12/31 08:14:46;;;;;;;3.92;2.80;;;4.80;99.90;;;;;;4146184;28;20044;-71
2020/12/31 08:17:00;;;;;;;3.35;2.53;;;4.80;99.90;;;;;;4155625;28;20569;-72
2020/12/31 08:19:01;;;;;;;4.65;3.10;;;4.80;99.90;;;;;;4153374;28;20659;-72
2020/12/31 08:21:05;;;;;;;3.65;2.75;;;4.80;99.90;;;;;;4152851;28;20120;-71
2020/12/31 08:23:13;;;;;;;4.28;2.92;;;4.70;99.90;;;;;;4153552;28;20502;-72
2020/12/31 08:25:14;;;;;;;4.47;2.85;;;4.70;99.90;;;;;;4142268;28;20041;-71
2020/12/31 08:27:19;;;;;;;3.65;2.58;;;4.70;99.90;;;;;;4152448;28;20516;-72
2020/12/31 08:29:21;;;;;;;4.00;3.15;;;4.70;99.90;;;;;;4145947;28;20133;-72
2020/12/31 08:31:24;;;;;;;4.87;2.83;;;4.80;99.90;;;;;;4139204;28;20058;-72
2020/12/31 08:33:26;;;;;;;3.55;2.63;;;4.80;99.90;;;;;;4149447;28;20049;-72
2020/12/31 08:35:28;;;;;;;4.57;3.00;;;4.80;99.90;;;;;;4151019;28;20137;-72
2020/12/31 08:37:28;;;;;;;3.75;3.00;;;4.80;99.90;;;;;;4149123;28;20082;-72
2020/12/31 08:39:29;;;;;;;3.60;2.80;;;4.80;99.90;;;;;;4149554;28;20030;-72
2020/12/31 08:41:29;;;;;;;3.65;2.60;;;4.80;99.90;;;;;;4151850;28;20134;-72
2020/12/31 08:43:40;;;;;;;3.78;2.90;;;4.90;99.90;;;;;;4148959;28;20413;-72
2020/12/31 08:45:41;;;;;;;4.18;3.15;;;4.80;99.90;;;;;;4145898;28;20037;-72
2020/12/31 08:47:42;;;;;;;6.60;4.18;;;4.90;99.90;;;;;;4149111;28;20076;-72
2020/12/31 08:49:52;;;;;;;18.08;10.68;;;4.90;99.90;;;;;;4152719;28;20038;-72
2020/12/31 08:51:53;;;;;;;13.45;7.75;;;4.90;99.90;;;;;;4154528;28;20033;-72
2020/12/31 08:54:01;;;;;;;8.73;5.90;;;5.00;99.90;;;;;;4154378;28;20037;-72
2020/12/31 08:56:11;;;;;;;13.50;7.47;;;5.00;99.90;;;;;;4151864;28;20457;-72
2020/12/31 08:58:16;;;;;;;9.73;6.15;;;5.00;99.90;;;;;;4150901;28;20509;-72
2020/12/31 09:00:35;;;;;;;6.55;4.63;;;5.00;99.90;;;;;;4152111;28;20613;-72
2020/12/31 09:02:36;;;;;;;5.25;3.60;;;5.00;99.90;;;;;;4152093;28;20072;-72
2020/12/31 09:04:36;;;;;;;5.38;3.75;;;5.10;99.90;;;;;;4145909;28;20034;-72
2020/12/31 09:06:47;;;;;;;4.38;3.30;;;5.00;99.90;;;;;;4153341;28;20035;-72
2020/12/31 09:08:48;;;;;;;5.28;3.03;;;5.00;99.90;;;;;;4146191;28;20034;-72
2020/12/31 09:11:03;;;;;;;4.30;3.22;;;5.10;99.90;;;;;;4152123;28;20474;-72
2020/12/31 09:13:04;;;;;;;4.63;3.30;;;5.10;99.90;;;;;;4156911;28;20038;-72
2020/12/31 09:15:05;;;;;;;5.15;3.63;;;5.10;99.90;;;;;;4153545;28;20065;-72
2020/12/31 09:17:21;;;;;;;4.95;3.58;;;5.10;99.90;;;;;;4157704;28;20046;-72
2020/12/31 09:19:23;;;;;;;5.68;4.28;;;5.10;99.90;;;;;;4153308;28;20053;-72
2020/12/31 09:21:30;;;;;;;6.82;4.20;;;5.00;99.90;;;;;;4158425;28;20489;-72
2020/12/31 09:23:30;;;;;;;6.93;3.80;;;5.00;99.90;;;;;;4149942;28;20041;-72
2020/12/31 09:25:31;;;;;;;5.22;3.80;;;5.00;99.90;;;;;;4144058;28;20112;-72
2020/12/31 09:27:32;;;;;;;5.65;3.72;;;5.00;99.90;;;;;;4148063;28;20045;-72
2020/12/31 09:29:34;;;;;;;6.15;4.47;;;5.00;99.90;;;;;;4151058;28;20076;-72
2020/12/31 09:31:36;;;;;;;8.00;4.65;;;4.90;99.90;;;;;;4153483;28;20505;-72
2020/12/31 09:33:37;;;;;;;10.00;4.47;;;4.90;99.90;;;;;;4158849;28;20064;-72
2020/12/31 09:35:37;;;;;;;5.63;4.07;;;4.90;99.90;;;;;;4156665;28;20638;-72
2020/12/31 09:37:46;;;;;;;6.20;4.60;;;4.80;99.90;;;;;;4150499;28;20037;-72
2020/12/31 09:39:47;;;;;;;6.93;4.32;;;4.80;99.90;;;;;;4151450;28;20040;-72
2020/12/31 09:41:49;;;;;;;6.47;4.65;;;4.90;99.90;;;;;;4167743;28;20029;-71
2020/12/31 09:43:50;;;;;;;7.30;4.63;;;4.90;99.90;;;;;;4157453;28;20056;-71
2020/12/31 09:45:50;;;;;;;6.90;5.00;;;4.80;99.90;;;;;;4151226;28;20044;-71
2020/12/31 09:47:52;;;;;;;7.55;4.90;;;4.90;99.90;;;;;;4158918;28;20076;-71
2020/12/31 09:49:53;;;;;;;6.95;4.32;;;4.90;99.90;;;;;;4156890;28;20040;-71
2020/12/31 09:51:53;;;;;;;6.72;4.97;;;4.90;99.90;;;;;;4155857;28;20033;-71
2020/12/31 09:53:54;;;;;;;7.93;5.22;;;4.90;99.90;;;;;;4150578;28;20041;-71
2020/12/31 09:55:55;;;;;;;9.02;5.35;;;4.90;99.90;;;;;;4158037;28;20038;-71
2020/12/31 09:57:55;;;;;;;6.80;4.95;;;4.90;99.90;;;;;;4156411;28;20053;-71
2020/12/31 09:59:56;;;;;;;6.93;5.05;;;4.90;99.90;;;;;;4149940;28;20034;-71
2020/12/31 10:01:57;;;;;;;8.00;5.50;;;4.90;99.90;;;;;;4150075;28;20061;-71
2020/12/31 10:03:58;;;;;;;8.90;5.70;;;4.80;99.90;;;;;;4154587;28;20137;-71
2020/12/31 10:05:59;;;;;;;7.88;5.88;;;4.90;99.90;;;;;;4156813;28;20072;-71
2020/12/31 10:07:59;;;;;;;7.80;5.47;;;4.90;99.90;;;;;;4161375;28;20033;-71
2020/12/31 10:10:02;;;;;;;10.30;6.35;;;4.90;99.90;;;;;;4161893;28;20465;-71
2020/12/31 10:12:02;;;;;;;8.65;5.88;;;4.90;99.90;;;;;;4159499;28;20065;-71
2020/12/31 10:14:03;;;;;;;8.88;6.45;;;4.90;99.90;;;;;;4155174;28;20038;-72
2020/12/31 10:16:04;;;;;;;9.30;6.68;;;4.90;99.90;;;;;;4155457;28;20034;-71
2020/12/31 10:18:05;;;;;;;8.88;6.55;;;4.90;99.90;;;;;;4152988;28;20038;-72
2020/12/31 10:20:07;;;;;;;9.40;6.53;;;4.90;99.90;;;;;;4153557;28;20356;-71
2020/12/31 10:22:08;;;;;;;9.60;6.53;;;4.80;99.90;;;;;;4157297;28;20053;-71
2020/12/31 10:24:09;;;;;;;8.60;6.28;;;4.80;99.90;;;;;;4152917;28;20044;-71
2020/12/31 10:26:09;;;;;;;7.63;5.47;;;4.80;99.90;;;;;;4152038;28;20033;-71
2020/12/31 10:28:10;;;;;;;7.90;6.03;;;4.90;99.90;;;;;;4156115;28;20034;-71
2020/12/31 10:30:11;;;;;;;10.10;6.85;;;4.90;99.90;;;;;;4153538;28;20029;-72
2020/12/31 10:32:11;;;;;;;9.30;6.20;;;4.90;99.90;;;;;;4153539;28;20080;-69
2020/12/31 10:34:13;;;;;;;10.70;7.15;;;4.90;99.90;;;;;;4154492;28;20026;-68
2020/12/31 10:36:14;;;;;;;9.73;6.47;;;4.90;99.90;;;;;;4150539;28;20033;-71
2020/12/31 10:38:14;;;;;;;10.07;6.43;;;4.90;99.90;;;;;;4153329;28;20037;-71
2020/12/31 10:40:15;;;;;;;8.77;5.75;;;4.90;99.90;;;;;;4153151;28;20045;-72
2020/12/31 10:42:15;;;;;;;9.68;6.90;;;4.90;99.90;;;;;;4148516;28;20042;-71
2020/12/31 10:44:17;;;;;;;10.10;6.85;;;4.90;99.90;;;;;;4156963;28;20061;-72
2020/12/31 10:46:23;;;;;;;10.80;7.05;;;5.00;99.90;;;;;;4157686;28;20037;-71